Forside
METAR-TAF:

METAR-TAF

Lufthavne :

Windsor, Ontario, Canada

Breddekreds: 42-16N, længdekreds: 082-58W, højde: 190 m

Aktuelle vejr

Denne rapport blev lavet for 53 minutter siden, kl. 18:00 UTC
Vind 14 kt fra vest
Temperatur 4°C
Fugtighed 52%
Tryk 1022 hPa
Sigt: 14.5 km
skyfri

METAR: CYQG 021800Z AUTO 28014KT 9SM CLR 04/M05 A3017 RMK SLP231

Tid: 13:53 (18:53 UTC)

Vejrudsigter

Denne rapport blev lavet for 1 time og 15 minutter siden, kl. 17:38 UTC
Foreløbig gælder fra 02 på 18 UTC til 03 på 18 UTC
Vind 10 kt fra vestnordvest med vindstød på up til 20 kt
Sigt: 10 km
skyfri
ændring
fra 02 på 20 UTC til 02 på 22 UTC
Vind 10 kt fra vestsydvest
ændring
fra 03 på 14 UTC til 03 på 16 UTC
Vind 15 kt fra vestsydvest med vindstød på up til 25 kt

TAF: CYQG 021738Z 0218/0318 29010G20KT P6SM SKC BECMG 0220/0222 24010KT BECMG 0314/0316 24015G25KT RMK FCST BASED ON AUTO OBS. NXT FCST BY 030000Z

Vejrobservationer og prognoser fra mere end 4000 lufthavne (METAR og TAF).

De gule og røde prikker repræsenterer de meteorologiske stationer.

Flyt musen over at se navnet på stationen.

Så klik over at se vejr observationer og prognoser.

At skifte det kort: Klik på de grønne knapper med et sort kors for at zoome ind; på den grønne knap med en bindestreg for at zoome ud; eller på de grønne pile for tilstødende kort.


METAR-TAF: